sensor_id;sensor_type;location;lat;lon;timestamp;pressure;altitude;pressure_sealevel;temperature;humidity
81931;BME280;71395;43.488;1.472;2023-12-20T00:02:23;99920.50;;;6.62;73.74
81931;BME280;71395;43.488;1.472;2023-12-20T00:04:49;99866.59;;;6.32;73.32
81931;BME280;71395;43.488;1.472;2023-12-20T00:07:15;99932.06;;;6.80;73.56
81931;BME280;71395;43.488;1.472;2023-12-20T00:09:40;99925.13;;;6.79;73.75
81931;BME280;71395;43.488;1.472;2023-12-20T00:12:06;99859.84;;;6.41;73.91
81931;BME280;71395;43.488;1.472;2023-12-20T00:14:31;99952.38;;;7.09;73.65
81931;BME280;71395;43.488;1.472;2023-12-20T00:16:57;99948.13;;;7.08;73.77
81931;BME280;71395;43.488;1.472;2023-12-20T00:19:22;99843.19;;;6.34;74.03
81931;BME280;71395;43.488;1.472;2023-12-20T00:21:48;99960.03;;;7.17;73.57
81931;BME280;71395;43.488;1.472;2023-12-20T00:24:13;99971.34;;;7.24;73.55
81931;BME280;71395;43.488;1.472;2023-12-20T00:26:38;99967.44;;;7.27;73.59
81931;BME280;71395;43.488;1.472;2023-12-20T00:29:04;99918.59;;;6.98;73.54
81931;BME280;71395;43.488;1.472;2023-12-20T00:31:29;99806.38;;;6.31;73.82
81931;BME280;71395;43.488;1.472;2023-12-20T00:33:55;99873.44;;;6.80;73.66
81931;BME280;71395;43.488;1.472;2023-12-20T00:36:20;99941.06;;;7.31;73.44
81931;BME280;71395;43.488;1.472;2023-12-20T00:38:46;99865.53;;;6.85;73.34
81931;BME280;71395;43.488;1.472;2023-12-20T00:41:11;99868.91;;;6.92;73.86
81931;BME280;71395;43.488;1.472;2023-12-20T00:43:36;99807.94;;;6.55;73.23
81931;BME280;71395;43.488;1.472;2023-12-20T00:46:02;99826.47;;;6.62;73.57
81931;BME280;71395;43.488;1.472;2023-12-20T00:48:27;99873.38;;;7.03;73.41
81931;BME280;71395;43.488;1.472;2023-12-20T00:50:55;99857.28;;;6.98;73.43
81931;BME280;71395;43.488;1.472;2023-12-20T00:53:20;99733.94;;;6.29;73.36
81931;BME280;71395;43.488;1.472;2023-12-20T00:55:46;99909.25;;;7.41;73.56
81931;BME280;71395;43.488;1.472;2023-12-20T00:58:11;99848.69;;;7.08;73.54
81931;BME280;71395;43.488;1.472;2023-12-20T01:00:37;99881.75;;;7.23;73.39
81931;BME280;71395;43.488;1.472;2023-12-20T01:03:02;99808.34;;;6.76;73.38
81931;BME280;71395;43.488;1.472;2023-12-20T01:05:28;99893.41;;;7.34;73.32
81931;BME280;71395;43.488;1.472;2023-12-20T01:07:54;99915.53;;;7.46;73.40
81931;BME280;71395;43.488;1.472;2023-12-20T01:10:19;99800.13;;;6.77;73.44
81931;BME280;71395;43.488;1.472;2023-12-20T01:12:44;99843.09;;;7.09;73.15
81931;BME280;71395;43.488;1.472;2023-12-20T01:15:10;99904.34;;;7.49;73.45
81931;BME280;71395;43.488;1.472;2023-12-20T01:17:35;99900.88;;;7.49;73.66
81931;BME280;71395;43.488;1.472;2023-12-20T01:20:01;99905.25;;;7.55;73.34
81931;BME280;71395;43.488;1.472;2023-12-20T01:22:26;99900.50;;;7.57;73.64
81931;BME280;71395;43.488;1.472;2023-12-20T01:24:52;99837.69;;;7.21;73.23
81931;BME280;71395;43.488;1.472;2023-12-20T01:27:17;99829.69;;;7.21;73.42
81931;BME280;71395;43.488;1.472;2023-12-20T01:29:43;99841.28;;;7.27;73.55
81931;BME280;71395;43.488;1.472;2023-12-20T01:32:08;99814.91;;;7.13;73.10
81931;BME280;71395;43.488;1.472;2023-12-20T01:34:33;99683.09;;;6.30;72.68
81931;BME280;71395;43.488;1.472;2023-12-20T01:36:59;99809.59;;;7.13;73.67
81931;BME280;71395;43.488;1.472;2023-12-20T01:39:25;99776.75;;;6.96;73.68
81931;BME280;71395;43.488;1.472;2023-12-20T01:41:50;99750.41;;;6.83;73.40
81931;BME280;71395;43.488;1.472;2023-12-20T01:44:16;99826.28;;;7.37;73.46
81931;BME280;71395;43.488;1.472;2023-12-20T01:46:41;99878.34;;;7.73;72.88
81931;BME280;71395;43.488;1.472;2023-12-20T01:49:07;99863.16;;;7.57;73.35
81931;BME280;71395;43.488;1.472;2023-12-20T01:51:33;99851.50;;;7.63;72.89
81931;BME280;71395;43.488;1.472;2023-12-20T01:54:00;99784.25;;;7.28;72.90
81931;BME280;71395;43.488;1.472;2023-12-20T01:56:26;99813.34;;;7.46;73.04
81931;BME280;71395;43.488;1.472;2023-12-20T01:58:55;99829.63;;;7.61;73.02
81931;BME280;71395;43.488;1.472;2023-12-20T02:01:21;99834.78;;;7.68;73.02
81931;BME280;71395;43.488;1.472;2023-12-20T02:03:47;99786.56;;;7.41;72.97
81931;BME280;71395;43.488;1.472;2023-12-20T02:06:12;99862.34;;;7.90;73.03
81931;BME280;71395;43.488;1.472;2023-12-20T02:08:38;99854.91;;;7.92;73.04
81931;BME280;71395;43.488;1.472;2023-12-20T02:11:03;99844.78;;;7.94;73.22
81931;BME280;71395;43.488;1.472;2023-12-20T02:13:30;99819.25;;;7.82;72.80
81931;BME280;71395;43.488;1.472;2023-12-20T02:15:56;99792.81;;;7.63;72.72
81931;BME280;71395;43.488;1.472;2023-12-20T02:18:22;99811.97;;;7.77;72.66
81931;BME280;71395;43.488;1.472;2023-12-20T02:20:47;99778.94;;;7.61;73.03
81931;BME280;71395;43.488;1.472;2023-12-20T02:23:13;99827.97;;;7.94;72.41
81931;BME280;71395;43.488;1.472;2023-12-20T02:25:38;99752.09;;;7.51;72.81
81931;BME280;71395;43.488;1.472;2023-12-20T02:28:05;99828.63;;;8.01;73.04
81931;BME280;71395;43.488;1.472;2023-12-20T02:30:30;99733.91;;;7.48;72.87
81931;BME280;71395;43.488;1.472;2023-12-20T02:32:56;99807.00;;;8.02;72.89
81931;BME280;71395;43.488;1.472;2023-12-20T02:35:21;99734.59;;;7.60;72.87
81931;BME280;71395;43.488;1.472;2023-12-20T02:37:46;99717.97;;;7.53;72.65
81931;BME280;71395;43.488;1.472;2023-12-20T02:40:12;99799.56;;;8.04;72.22
81931;BME280;71395;43.488;1.472;2023-12-20T02:42:37;99736.72;;;7.58;72.86
81931;BME280;71395;43.488;1.472;2023-12-20T02:45:03;99779.28;;;7.87;72.88
81931;BME280;71395;43.488;1.472;2023-12-20T02:47:29;99777.09;;;7.84;72.25
81931;BME280;71395;43.488;1.472;2023-12-20T02:49:55;99802.53;;;8.08;72.59
81931;BME280;71395;43.488;1.472;2023-12-20T02:52:22;99724.19;;;7.59;72.80
81931;BME280;71395;43.488;1.472;2023-12-20T02:54:48;99758.44;;;7.84;72.98
81931;BME280;71395;43.488;1.472;2023-12-20T02:57:13;99790.81;;;8.09;72.15
81931;BME280;71395;43.488;1.472;2023-12-20T02:59:38;99797.75;;;8.10;72.21
81931;BME280;71395;43.488;1.472;2023-12-20T03:02:04;99783.38;;;8.11;72.09
81931;BME280;71395;43.488;1.472;2023-12-20T03:04:29;99772.69;;;8.11;72.46
81931;BME280;71395;43.488;1.472;2023-12-20T03:06:55;99591.31;;;7.00;72.53
81931;BME280;71395;43.488;1.472;2023-12-20T03:09:20;99764.38;;;8.08;72.95
81931;BME280;71395;43.488;1.472;2023-12-20T03:11:45;99764.75;;;8.16;72.65
81931;BME280;71395;43.488;1.472;2023-12-20T03:14:11;99757.28;;;8.18;72.91
81931;BME280;71395;43.488;1.472;2023-12-20T03:16:36;99533.94;;;6.76;72.48
81931;BME280;71395;43.488;1.472;2023-12-20T03:19:02;99726.91;;;8.02;71.95
81931;BME280;71395;43.488;1.472;2023-12-20T03:21:27;99744.94;;;8.12;72.04
81931;BME280;71395;43.488;1.472;2023-12-20T03:23:53;99706.25;;;7.93;72.12
81931;BME280;71395;43.488;1.472;2023-12-20T03:26:18;99744.47;;;8.20;72.22
81931;BME280;71395;43.488;1.472;2023-12-20T03:28:44;99686.84;;;7.81;72.33
81931;BME280;71395;43.488;1.472;2023-12-20T03:31:10;99750.81;;;8.14;72.76
81931;BME280;71395;43.488;1.472;2023-12-20T03:33:36;99716.84;;;7.88;73.25
81931;BME280;71395;43.488;1.472;2023-12-20T03:36:01;99747.53;;;8.07;73.72
81931;BME280;71395;43.488;1.472;2023-12-20T03:38:27;99745.34;;;8.04;73.62
81931;BME280;71395;43.488;1.472;2023-12-20T03:40:52;99731.00;;;7.88;73.56
81931;BME280;71395;43.488;1.472;2023-12-20T03:43:18;99737.72;;;7.91;74.32
81931;BME280;71395;43.488;1.472;2023-12-20T03:45:43;99739.56;;;7.90;73.80
81931;BME280;71395;43.488;1.472;2023-12-20T03:48:09;99635.59;;;7.18;74.58
81931;BME280;71395;43.488;1.472;2023-12-20T03:50:35;99746.94;;;7.83;74.71
81931;BME280;71395;43.488;1.472;2023-12-20T03:53:00;99736.47;;;7.76;74.70
81931;BME280;71395;43.488;1.472;2023-12-20T03:55:26;99715.03;;;7.55;74.98
81931;BME280;71395;43.488;1.472;2023-12-20T03:57:51;99735.88;;;7.74;75.47
81931;BME280;71395;43.488;1.472;2023-12-20T04:00:17;99670.41;;;7.28;75.10
81931;BME280;71395;43.488;1.472;2023-12-20T04:02:42;99684.34;;;7.35;75.12
81931;BME280;71395;43.488;1.472;2023-12-20T04:05:09;99728.31;;;7.66;75.92
81931;BME280;71395;43.488;1.472;2023-12-20T04:07:35;99720.78;;;7.63;75.60
81931;BME280;71395;43.488;1.472;2023-12-20T04:10:01;99714.06;;;7.61;76.05
81931;BME280;71395;43.488;1.472;2023-12-20T04:12:28;99716.44;;;7.57;76.16
81931;BME280;71395;43.488;1.472;2023-12-20T04:14:53;99621.06;;;6.92;75.98
81931;BME280;71395;43.488;1.472;2023-12-20T04:17:20;99705.69;;;7.52;76.20
81931;BME280;71395;43.488;1.472;2023-12-20T04:19:45;99710.44;;;7.50;76.44
81931;BME280;71395;43.488;1.472;2023-12-20T04:22:11;99708.28;;;7.47;76.59
81931;BME280;71395;43.488;1.472;2023-12-20T04:24:36;99684.06;;;7.32;77.03
81931;BME280;71395;43.488;1.472;2023-12-20T04:27:02;99691.94;;;7.43;76.89
81931;BME280;71395;43.488;1.472;2023-12-20T04:29:27;99670.66;;;7.27;77.34
81931;BME280;71395;43.488;1.472;2023-12-20T04:31:53;99695.91;;;7.41;76.83
81931;BME280;71395;43.488;1.472;2023-12-20T04:34:18;99682.41;;;7.31;77.55
81931;BME280;71395;43.488;1.472;2023-12-20T04:36:43;99617.75;;;6.85;77.81
81931;BME280;71395;43.488;1.472;2023-12-20T04:39:09;99664.97;;;7.23;77.92
81931;BME280;71395;43.488;1.472;2023-12-20T04:41:35;99614.44;;;6.94;77.80
81931;BME280;71395;43.488;1.472;2023-12-20T04:44:00;99624.91;;;7.01;78.07
81931;BME280;71395;43.488;1.472;2023-12-20T04:46:26;99690.81;;;7.39;78.04
81931;BME280;71395;43.488;1.472;2023-12-20T04:48:51;99669.00;;;7.25;78.48
81931;BME280;71395;43.488;1.472;2023-12-20T04:51:17;99591.81;;;6.80;78.72
81931;BME280;71395;43.488;1.472;2023-12-20T04:53:42;99669.81;;;7.43;78.50
81931;BME280;71395;43.488;1.472;2023-12-20T04:56:08;99603.03;;;6.99;78.68
81931;BME280;71395;43.488;1.472;2023-12-20T04:58:33;99631.06;;;7.18;78.88
81931;BME280;71395;43.488;1.472;2023-12-20T05:00:59;99676.03;;;7.48;78.89
81931;BME280;71395;43.488;1.472;2023-12-20T05:03:24;99556.81;;;6.71;79.28
81931;BME280;71395;43.488;1.472;2023-12-20T05:05:50;99565.03;;;6.87;79.30
81931;BME280;71395;43.488;1.472;2023-12-20T05:08:15;99668.91;;;7.54;79.20
81931;BME280;71395;43.488;1.472;2023-12-20T05:10:41;99672.13;;;7.56;79.63
81931;BME280;71395;43.488;1.472;2023-12-20T05:13:06;99667.34;;;7.58;79.71
81931;BME280;71395;43.488;1.472;2023-12-20T05:15:33;99661.53;;;7.61;79.32
81931;BME280;71395;43.488;1.472;2023-12-20T05:17:58;99662.91;;;7.64;79.56
81931;BME280;71395;43.488;1.472;2023-12-20T05:20:23;99560.19;;;6.84;79.17
81931;BME280;71395;43.488;1.472;2023-12-20T05:22:49;99558.78;;;6.98;79.38
81931;BME280;71395;43.488;1.472;2023-12-20T05:25:14;99587.84;;;7.16;79.75
81931;BME280;71395;43.488;1.472;2023-12-20T05:27:40;99564.53;;;7.07;79.80
81931;BME280;71395;43.488;1.472;2023-12-20T05:30:06;99597.53;;;7.22;80.44
81931;BME280;71395;43.488;1.472;2023-12-20T05:32:31;99478.50;;;6.56;80.44
81931;BME280;71395;43.488;1.472;2023-12-20T05:34:57;99694.06;;;7.80;80.37
81931;BME280;71395;43.488;1.472;2023-12-20T05:37:22;99665.38;;;7.70;80.56
81931;BME280;71395;43.488;1.472;2023-12-20T05:39:47;99668.88;;;7.71;80.90
81931;BME280;71395;43.488;1.472;2023-12-20T05:42:13;99672.53;;;7.87;80.16
81931;BME280;71395;43.488;1.472;2023-12-20T05:44:38;99672.47;;;7.82;80.66
81931;BME280;71395;43.488;1.472;2023-12-20T05:47:04;99623.47;;;7.49;80.92
81931;BME280;71395;43.488;1.472;2023-12-20T05:49:29;99646.00;;;7.58;80.90
81931;BME280;71395;43.488;1.472;2023-12-20T05:51:55;99578.53;;;7.19;80.69
81931;BME280;71395;43.488;1.472;2023-12-20T05:54:20;99680.78;;;7.85;80.73
81931;BME280;71395;43.488;1.472;2023-12-20T05:56:46;99639.22;;;7.50;80.53
81931;BME280;71395;43.488;1.472;2023-12-20T05:59:12;99541.75;;;6.99;80.79
81931;BME280;71395;43.488;1.472;2023-12-20T06:01:37;99656.34;;;7.71;80.72
81931;BME280;71395;43.488;1.472;2023-12-20T06:04:03;99711.34;;;8.16;80.78
81931;BME280;71395;43.488;1.472;2023-12-20T06:06:29;99725.78;;;8.20;80.97
81931;BME280;71395;43.488;1.472;2023-12-20T06:08:56;99683.56;;;7.95;81.10
81931;BME280;71395;43.488;1.472;2023-12-20T06:11:21;99734.44;;;8.27;81.26
81931;BME280;71395;43.488;1.472;2023-12-20T06:13:46;99730.59;;;8.18;81.16
81931;BME280;71395;43.488;1.472;2023-12-20T06:16:12;99624.66;;;7.58;81.69
81931;BME280;71395;43.488;1.472;2023-12-20T06:18:37;99673.50;;;7.81;81.94
81931;BME280;71395;43.488;1.472;2023-12-20T06:21:03;99696.81;;;8.07;82.05
81931;BME280;71395;43.488;1.472;2023-12-20T06:23:29;99732.91;;;8.32;81.99
81931;BME280;71395;43.488;1.472;2023-12-20T06:25:54;99751.28;;;8.50;81.82
81931;BME280;71395;43.488;1.472;2023-12-20T06:28:20;99755.06;;;8.54;81.72
81931;BME280;71395;43.488;1.472;2023-12-20T06:30:46;99758.31;;;8.56;81.88
81931;BME280;71395;43.488;1.472;2023-12-20T06:33:14;99760.72;;;8.58;81.74
81931;BME280;71395;43.488;1.472;2023-12-20T06:35:39;99734.59;;;8.38;82.18
81931;BME280;71395;43.488;1.472;2023-12-20T06:38:05;99705.44;;;8.14;82.01
81931;BME280;71395;43.488;1.472;2023-12-20T06:40:30;99716.81;;;8.26;81.95
81931;BME280;71395;43.488;1.472;2023-12-20T06:42:56;99745.88;;;8.45;81.70
81931;BME280;71395;43.488;1.472;2023-12-20T06:45:21;99734.22;;;8.51;81.45
81931;BME280;71395;43.488;1.472;2023-12-20T06:47:47;99754.28;;;8.53;81.98
81931;BME280;71395;43.488;1.472;2023-12-20T06:50:12;99719.03;;;8.35;82.73
81931;BME280;71395;43.488;1.472;2023-12-20T06:52:38;99769.13;;;8.66;82.04
81931;BME280;71395;43.488;1.472;2023-12-20T06:55:03;99815.84;;;8.86;81.77
81931;BME280;71395;43.488;1.472;2023-12-20T06:57:29;99770.25;;;8.70;82.64
81931;BME280;71395;43.488;1.472;2023-12-20T06:59:55;99682.19;;;8.15;81.48
81931;BME280;71395;43.488;1.472;2023-12-20T07:02:21;99646.66;;;7.87;82.17
81931;BME280;71395;43.488;1.472;2023-12-20T07:04:47;99723.56;;;8.34;82.34
81931;BME280;71395;43.488;1.472;2023-12-20T07:07:13;99713.56;;;8.24;82.28
81931;BME280;71395;43.488;1.472;2023-12-20T07:09:38;99770.72;;;8.67;82.08
81931;BME280;71395;43.488;1.472;2023-12-20T07:12:06;99716.22;;;8.24;82.55
81931;BME280;71395;43.488;1.472;2023-12-20T07:14:31;99723.31;;;8.14;82.30
81931;BME280;71395;43.488;1.472;2023-12-20T07:16:57;99824.66;;;8.86;82.55
81931;BME280;71395;43.488;1.472;2023-12-20T07:19:22;99769.81;;;8.57;82.57
81931;BME280;71395;43.488;1.472;2023-12-20T07:21:48;99757.69;;;8.49;82.78
81931;BME280;71395;43.488;1.472;2023-12-20T07:24:13;99854.59;;;9.10;82.88
81931;BME280;71395;43.488;1.472;2023-12-20T07:26:39;99825.97;;;8.84;82.15
81931;BME280;71395;43.488;1.472;2023-12-20T07:29:05;99867.47;;;9.13;82.25
81931;BME280;71395;43.488;1.472;2023-12-20T07:31:31;99880.84;;;9.13;81.78
81931;BME280;71395;43.488;1.472;2023-12-20T07:33:57;99885.13;;;9.14;81.95
81931;BME280;71395;43.488;1.472;2023-12-20T07:36:23;99781.50;;;8.50;81.95
81931;BME280;71395;43.488;1.472;2023-12-20T07:38:48;99856.81;;;8.91;82.04
81931;BME280;71395;43.488;1.472;2023-12-20T07:41:13;99789.94;;;8.42;81.95
81931;BME280;71395;43.488;1.472;2023-12-20T07:43:41;99900.63;;;9.12;83.16
81931;BME280;71395;43.488;1.472;2023-12-20T07:46:07;99913.19;;;9.12;82.91
81931;BME280;71395;43.488;1.472;2023-12-20T07:48:36;99742.56;;;7.94;82.70
81931;BME280;71395;43.488;1.472;2023-12-20T07:51:03;99935.88;;;9.09;82.34
81931;BME280;71395;43.488;1.472;2023-12-20T07:53:29;99875.75;;;8.68;82.23
81931;BME280;71395;43.488;1.472;2023-12-20T07:55:55;99912.88;;;8.86;82.68
81931;BME280;71395;43.488;1.472;2023-12-20T07:58:20;99866.69;;;8.47;82.95
81931;BME280;71395;43.488;1.472;2023-12-20T08:00:45;99949.13;;;8.99;81.69
81931;BME280;71395;43.488;1.472;2023-12-20T08:03:11;99905.16;;;8.68;82.47
81931;BME280;71395;43.488;1.472;2023-12-20T08:05:37;99954.97;;;8.96;82.25
81931;BME280;71395;43.488;1.472;2023-12-20T08:08:04;99917.56;;;8.57;82.88
81931;BME280;71395;43.488;1.472;2023-12-20T08:10:30;99967.31;;;8.80;82.20
81931;BME280;71395;43.488;1.472;2023-12-20T08:12:55;99982.13;;;8.88;83.17
81931;BME280;71395;43.488;1.472;2023-12-20T08:15:21;99924.47;;;8.53;82.47
81931;BME280;71395;43.488;1.472;2023-12-20T08:17:46;100004.00;;;8.85;82.24
81931;BME280;71395;43.488;1.472;2023-12-20T08:20:11;99995.44;;;8.83;82.02
81931;BME280;71395;43.488;1.472;2023-12-20T08:22:37;99940.81;;;8.40;82.93
81931;BME280;71395;43.488;1.472;2023-12-20T08:25:03;99903.66;;;8.04;82.74
81931;BME280;71395;43.488;1.472;2023-12-20T08:27:28;100031.97;;;8.77;82.42
81931;BME280;71395;43.488;1.472;2023-12-20T08:29:53;99992.88;;;8.54;81.66
81931;BME280;71395;43.488;1.472;2023-12-20T08:32:19;99944.53;;;8.22;82.41
81931;BME280;71395;43.488;1.472;2023-12-20T08:34:44;100003.56;;;8.37;82.32
81931;BME280;71395;43.488;1.472;2023-12-20T08:37:10;99926.97;;;7.92;81.91
81931;BME280;71395;43.488;1.472;2023-12-20T08:39:35;99939.69;;;8.02;82.60
81931;BME280;71395;43.488;1.472;2023-12-20T08:42:00;100042.50;;;8.67;82.75
81931;BME280;71395;43.488;1.472;2023-12-20T08:44:26;100062.03;;;8.67;82.27
81931;BME280;71395;43.488;1.472;2023-12-20T08:46:51;100064.38;;;8.64;81.96
81931;BME280;71395;43.488;1.472;2023-12-20T08:49:17;100011.22;;;8.34;82.78
81931;BME280;71395;43.488;1.472;2023-12-20T08:51:42;100072.16;;;8.65;82.71
81931;BME280;71395;43.488;1.472;2023-12-20T08:54:08;99963.38;;;7.82;82.05
81931;BME280;71395;43.488;1.472;2023-12-20T08:56:34;100086.56;;;8.64;81.50
81931;BME280;71395;43.488;1.472;2023-12-20T08:58:59;99889.69;;;7.35;82.67
81931;BME280;71395;43.488;1.472;2023-12-20T09:01:24;100022.38;;;8.14;81.64
81931;BME280;71395;43.488;1.472;2023-12-20T09:03:50;100015.91;;;8.10;82.12
81931;BME280;71395;43.488;1.472;2023-12-20T09:06:15;100018.25;;;8.06;81.81
81931;BME280;71395;43.488;1.472;2023-12-20T09:08:41;100002.88;;;7.96;81.42
81931;BME280;71395;43.488;1.472;2023-12-20T09:11:06;100105.59;;;8.68;81.63
81931;BME280;71395;43.488;1.472;2023-12-20T09:13:32;100123.03;;;8.70;81.73
81931;BME280;71395;43.488;1.472;2023-12-20T09:15:57;99931.28;;;7.48;81.45
81931;BME280;71395;43.488;1.472;2023-12-20T09:18:23;100007.31;;;7.91;81.78
81931;BME280;71395;43.488;1.472;2023-12-20T09:20:49;100008.34;;;7.90;81.32
81931;BME280;71395;43.488;1.472;2023-12-20T09:23:14;100091.81;;;8.42;81.34
81931;BME280;71395;43.488;1.472;2023-12-20T09:25:39;100117.41;;;8.55;81.36
81931;BME280;71395;43.488;1.472;2023-12-20T09:28:05;100020.56;;;7.86;81.51
81931;BME280;71395;43.488;1.472;2023-12-20T09:30:30;100155.91;;;8.71;81.97
81931;BME280;71395;43.488;1.472;2023-12-20T09:32:57;100156.72;;;8.71;81.31
81931;BME280;71395;43.488;1.472;2023-12-20T09:35:24;100165.78;;;8.70;81.80
81931;BME280;71395;43.488;1.472;2023-12-20T09:37:49;100176.47;;;8.70;82.12
81931;BME280;71395;43.488;1.472;2023-12-20T09:40:18;100104.72;;;8.34;82.40
81931;BME280;71395;43.488;1.472;2023-12-20T09:45:13;100169.03;;;8.72;82.30
81931;BME280;71395;43.488;1.472;2023-12-20T09:47:40;100142.59;;;8.59;81.16
81931;BME280;71395;43.488;1.472;2023-12-20T09:50:06;100019.31;;;7.76;80.94
81931;BME280;71395;43.488;1.472;2023-12-20T09:52:34;100006.09;;;7.70;81.36
81931;BME280;71395;43.488;1.472;2023-12-20T09:55:01;100020.69;;;7.79;81.27
81931;BME280;71395;43.488;1.472;2023-12-20T09:57:31;100054.81;;;8.06;81.57
81931;BME280;71395;43.488;1.472;2023-12-20T09:59:57;100065.91;;;8.14;81.09
81931;BME280;71395;43.488;1.472;2023-12-20T10:02:24;100121.53;;;8.46;81.68
81931;BME280;71395;43.488;1.472;2023-12-20T10:04:52;100182.47;;;8.94;81.83
81931;BME280;71395;43.488;1.472;2023-12-20T10:07:17;100117.47;;;8.60;81.55
81931;BME280;71395;43.488;1.472;2023-12-20T10:09:44;100143.44;;;8.76;81.59
81931;BME280;71395;43.488;1.472;2023-12-20T10:12:09;100185.09;;;9.06;80.91
81931;BME280;71395;43.488;1.472;2023-12-20T10:14:35;100025.59;;;7.99;80.67
81931;BME280;71395;43.488;1.472;2023-12-20T10:17:04;100173.97;;;9.14;80.26
81931;BME280;71395;43.488;1.472;2023-12-20T10:19:31;100172.44;;;9.18;80.18
81931;BME280;71395;43.488;1.472;2023-12-20T10:22:00;100027.66;;;8.25;80.73
81931;BME280;71395;43.488;1.472;2023-12-20T10:24:28;100075.41;;;8.50;80.43
81931;BME280;71395;43.488;1.472;2023-12-20T10:27:02;100187.84;;;9.28;80.08
81931;BME280;71395;43.488;1.472;2023-12-20T10:29:32;100186.56;;;9.30;81.15
81931;BME280;71395;43.488;1.472;2023-12-20T10:31:58;100026.56;;;8.38;80.34
81931;BME280;71395;43.488;1.472;2023-12-20T10:34:24;100044.69;;;8.53;79.50
81931;BME280;71395;43.488;1.472;2023-12-20T10:36:49;100166.66;;;9.43;80.17
81931;BME280;71395;43.488;1.472;2023-12-20T10:39:15;100097.25;;;8.98;80.23
81931;BME280;71395;43.488;1.472;2023-12-20T10:41:41;100034.00;;;8.70;79.83
81931;BME280;71395;43.488;1.472;2023-12-20T10:44:10;100126.78;;;9.42;79.98
81931;BME280;71395;43.488;1.472;2023-12-20T10:46:36;100024.75;;;8.77;78.75
81931;BME280;71395;43.488;1.472;2023-12-20T10:49:06;100135.34;;;9.44;79.57
81931;BME280;71395;43.488;1.472;2023-12-20T10:51:34;100160.16;;;9.78;78.74
81931;BME280;71395;43.488;1.472;2023-12-20T10:54:00;100130.03;;;9.66;79.53
81931;BME280;71395;43.488;1.472;2023-12-20T10:56:30;100055.31;;;9.20;78.57
81931;BME280;71395;43.488;1.472;2023-12-20T10:58:57;100059.28;;;9.40;79.49
81931;BME280;71395;43.488;1.472;2023-12-20T11:01:27;100163.78;;;10.10;79.69
81931;BME280;71395;43.488;1.472;2023-12-20T11:03:54;100134.25;;;10.05;79.55
81931;BME280;71395;43.488;1.472;2023-12-20T11:08:53;100147.97;;;10.31;77.88
81931;BME280;71395;43.488;1.472;2023-12-20T11:14:02;99999.19;;;9.47;77.66
81931;BME280;71395;43.488;1.472;2023-12-20T11:16:31;100110.81;;;10.18;77.25
81931;BME280;71395;43.488;1.472;2023-12-20T11:18:57;99996.78;;;9.46;78.60
81931;BME280;71395;43.488;1.472;2023-12-20T11:21:22;100034.53;;;9.71;78.36
81931;BME280;71395;43.488;1.472;2023-12-20T11:23:48;100005.69;;;9.78;77.26
81931;BME280;71395;43.488;1.472;2023-12-20T11:26:15;100123.06;;;10.63;78.40
81931;BME280;71395;43.488;1.472;2023-12-20T11:28:41;100115.59;;;10.65;77.99
81931;BME280;71395;43.488;1.472;2023-12-20T11:31:07;100124.59;;;10.85;76.82
81931;BME280;71395;43.488;1.472;2023-12-20T11:33:36;100041.41;;;10.43;77.14
81931;BME280;71395;43.488;1.472;2023-12-20T11:36:03;100114.91;;;10.79;76.03
81931;BME280;71395;43.488;1.472;2023-12-20T11:38:37;99974.75;;;9.93;75.59
81931;BME280;71395;43.488;1.472;2023-12-20T11:41:05;100123.81;;;10.85;76.21
81931;BME280;71395;43.488;1.472;2023-12-20T11:43:37;100125.06;;;10.77;76.51
81931;BME280;71395;43.488;1.472;2023-12-20T11:46:05;100049.13;;;10.34;75.74
81931;BME280;71395;43.488;1.472;2023-12-20T11:48:31;100071.00;;;10.26;75.67
81931;BME280;71395;43.488;1.472;2023-12-20T11:50:57;99991.53;;;9.83;76.04
81931;BME280;71395;43.488;1.472;2023-12-20T11:53:23;100000.69;;;9.87;75.08
81931;BME280;71395;43.488;1.472;2023-12-20T11:55:49;100103.19;;;10.58;75.10
81931;BME280;71395;43.488;1.472;2023-12-20T11:58:15;99998.59;;;9.94;75.76
81931;BME280;71395;43.488;1.472;2023-12-20T12:00:42;100101.25;;;10.54;75.45
81931;BME280;71395;43.488;1.472;2023-12-20T12:03:08;100112.47;;;10.46;74.80
81931;BME280;71395;43.488;1.472;2023-12-20T12:05:34;100012.31;;;9.71;75.07
81931;BME280;71395;43.488;1.472;2023-12-20T12:08:00;100103.63;;;10.23;74.60
81931;BME280;71395;43.488;1.472;2023-12-20T12:10:26;99980.56;;;9.30;74.10
81931;BME280;71395;43.488;1.472;2023-12-20T12:12:51;99970.16;;;9.12;74.75
81931;BME280;71395;43.488;1.472;2023-12-20T12:15:17;100022.28;;;9.31;75.12
81931;BME280;71395;43.488;1.472;2023-12-20T12:17:42;100072.31;;;9.53;75.31
81931;BME280;71395;43.488;1.472;2023-12-20T12:20:08;100074.38;;;9.46;74.10
81931;BME280;71395;43.488;1.472;2023-12-20T12:22:35;100003.84;;;8.91;74.67
81931;BME280;71395;43.488;1.472;2023-12-20T12:25:12;100088.06;;;9.49;73.53
81931;BME280;71395;43.488;1.472;2023-12-20T12:27:42;100069.81;;;9.24;73.34
81931;BME280;71395;43.488;1.472;2023-12-20T12:30:08;99978.69;;;8.53;73.56
81931;BME280;71395;43.488;1.472;2023-12-20T12:32:35;100124.72;;;9.49;73.91
81931;BME280;71395;43.488;1.472;2023-12-20T12:35:03;99928.19;;;8.18;72.55
81931;BME280;71395;43.488;1.472;2023-12-20T12:37:28;100073.59;;;9.06;73.18
81931;BME280;71395;43.488;1.472;2023-12-20T12:39:54;100009.47;;;8.56;73.17
81931;BME280;71395;43.488;1.472;2023-12-20T12:42:20;100002.50;;;8.55;72.42
81931;BME280;71395;43.488;1.472;2023-12-20T12:44:46;100014.91;;;8.61;72.84
81931;BME280;71395;43.488;1.472;2023-12-20T12:47:12;99929.66;;;8.09;72.23
81931;BME280;71395;43.488;1.472;2023-12-20T12:49:37;100094.88;;;9.18;71.87
81931;BME280;71395;43.488;1.472;2023-12-20T12:52:05;100133.53;;;9.49;72.45
81931;BME280;71395;43.488;1.472;2023-12-20T12:54:30;100098.25;;;9.30;71.59
81931;BME280;71395;43.488;1.472;2023-12-20T12:56:56;100042.63;;;9.11;71.31
81931;BME280;71395;43.488;1.472;2023-12-20T12:59:23;100010.28;;;9.12;71.27
81931;BME280;71395;43.488;1.472;2023-12-20T13:01:48;100014.63;;;9.18;71.18
81931;BME280;71395;43.488;1.472;2023-12-20T13:04:13;100012.53;;;9.20;69.77
81931;BME280;71395;43.488;1.472;2023-12-20T13:06:39;99988.22;;;8.83;69.97
81931;BME280;71395;43.488;1.472;2023-12-20T13:09:06;99960.53;;;8.72;70.03